DAL2533 KSAN-KSEA
Flight info
| Callsign | DAL2533 |
|---|---|
| Flight time | 2h 16m |
| Altitude | 40000 |
| Route | PADRZ2 EHF SHIMR LKV HAWKZ8 |
| Aircraft | A35K/H-SDE2E3GHIJ3J4J5LM1ORWXY/LB1D1 |
Departure
| Time | 2026-04-22 05:49 |
|---|---|
| Airport | San Diego International Airport (KSAN) |
Arrival
| Time | 2026-04-22 08:06 |
|---|---|
| Airport | Seattle–Tacoma International Airport (KSEA) |
| Time | Latitude | Longitude | Altitude | Speed | Heading |
|---|---|---|---|---|---|
| 2026-04-22 05:17 | 32.73433 | -117.20486 | 28 ft | 0 kts | 122° |
| 2026-04-22 05:32 | 32.73431 | -117.20481 | 27 ft | 1 kts | 122° |
| 2026-04-22 05:32 | 32.73439 | -117.20497 | 27 ft | 3 kts | 123° |
| 2026-04-22 05:33 | 32.73450 | -117.20517 | 25 ft | 3 kts | 123° |
| 2026-04-22 05:33 | 32.73461 | -117.20536 | 25 ft | 3 kts | 118° |
| 2026-04-22 05:33 | 32.73466 | -117.20551 | 24 ft | 3 kts | 56° |
| 2026-04-22 05:33 | 32.73457 | -117.20558 | 23 ft | 3 kts | 1° |
| 2026-04-22 05:34 | 32.73445 | -117.20558 | 24 ft | 4 kts | 359° |
| 2026-04-22 05:34 | 32.73425 | -117.20558 | 25 ft | 4 kts | 1° |
| 2026-04-22 05:34 | 32.73405 | -117.20559 | 27 ft | 4 kts | 1° |
| 2026-04-22 05:34 | 32.73388 | -117.20554 | 27 ft | 0 kts | 2° |
| 2026-04-22 05:37 | 32.73389 | -117.20554 | 28 ft | 1 kts | 1° |
| 2026-04-22 05:37 | 32.73419 | -117.20555 | 26 ft | 7 kts | 359° |
| 2026-04-22 05:38 | 32.73486 | -117.20542 | 31 ft | 12 kts | 25° |
| 2026-04-22 05:38 | 32.73545 | -117.20469 | 29 ft | 11 kts | 47° |
| 2026-04-22 05:38 | 32.73548 | -117.20465 | 29 ft | 0 kts | 47° |
| 2026-04-22 05:39 | 32.73569 | -117.20435 | 29 ft | 11 kts | 52° |
| 2026-04-22 05:39 | 32.73577 | -117.20306 | 29 ft | 19 kts | 103° |
| 2026-04-22 05:39 | 32.73539 | -117.20153 | 31 ft | 20 kts | 107° |
| 2026-04-22 05:40 | 32.73502 | -117.19993 | 31 ft | 19 kts | 105° |
| 2026-04-22 05:40 | 32.73465 | -117.19836 | 33 ft | 21 kts | 106° |
| 2026-04-22 05:40 | 32.73427 | -117.19679 | 32 ft | 18 kts | 106° |
| 2026-04-22 05:40 | 32.73391 | -117.19528 | 33 ft | 19 kts | 106° |
| 2026-04-22 05:41 | 32.73349 | -117.19362 | 31 ft | 23 kts | 107° |
| 2026-04-22 05:41 | 32.73302 | -117.19166 | 30 ft | 26 kts | 106° |
| 2026-04-22 05:41 | 32.73257 | -117.18980 | 32 ft | 21 kts | 106° |
| 2026-04-22 05:41 | 32.73215 | -117.18809 | 34 ft | 22 kts | 106° |
| 2026-04-22 05:42 | 32.73171 | -117.18626 | 34 ft | 25 kts | 106° |
| 2026-04-22 05:42 | 32.73120 | -117.18417 | 31 ft | 28 kts | 106° |
| 2026-04-22 05:42 | 32.73070 | -117.18208 | 30 ft | 27 kts | 105° |
| 2026-04-22 05:42 | 32.73018 | -117.17998 | 28 ft | 26 kts | 105° |
| 2026-04-22 05:43 | 32.72979 | -117.17835 | 27 ft | 9 kts | 108° |
| 2026-04-22 05:43 | 32.72955 | -117.17747 | 27 ft | 13 kts | 104° |
| 2026-04-22 05:43 | 32.72952 | -117.17715 | 27 ft | 0 kts | 90° |
| 2026-04-22 05:47 | 32.72952 | -117.17708 | 27 ft | 2 kts | 88° |
| 2026-04-22 05:47 | 32.72971 | -117.17630 | 30 ft | 16 kts | 62° |
| 2026-04-22 05:47 | 32.73022 | -117.17624 | 30 ft | 8 kts | 311° |
| 2026-04-22 05:48 | 32.73039 | -117.17679 | 29 ft | 0 kts | 286° |
| 2026-04-22 05:48 | 32.73041 | -117.17684 | 29 ft | 3 kts | 286° |
| 2026-04-22 05:49 | 32.73099 | -117.17920 | 28 ft | 68 kts | 286° |
| 2026-04-22 05:49 | 32.73301 | -117.18754 | 31 ft | 139 kts | 286° |
| 2026-04-22 05:49 | 32.73617 | -117.20043 | 303 ft | 176 kts | 286° |
| 2026-04-22 05:49 | 32.74092 | -117.21446 | 910 ft | 193 kts | 301° |
| 2026-04-22 05:50 | 32.74836 | -117.22780 | 1638 ft | 197 kts | 303° |
| 2026-04-22 05:50 | 32.75615 | -117.24129 | 2323 ft | 199 kts | 304° |
| 2026-04-22 05:50 | 32.76416 | -117.25510 | 2910 ft | 207 kts | 304° |
| 2026-04-22 05:50 | 32.77233 | -117.26950 | 3538 ft | 214 kts | 303° |
| 2026-04-22 05:51 | 32.78077 | -117.28475 | 4001 ft | 230 kts | 303° |
| 2026-04-22 05:51 | 32.78995 | -117.30145 | 4343 ft | 251 kts | 303° |
| 2026-04-22 05:51 | 32.79969 | -117.31929 | 4928 ft | 261 kts | 302° |
| 2026-04-22 05:51 | 32.81044 | -117.33696 | 5642 ft | 265 kts | 308° |
| 2026-04-22 05:52 | 32.82198 | -117.35428 | 6376 ft | 269 kts | 308° |
| 2026-04-22 05:52 | 32.83350 | -117.37162 | 7108 ft | 272 kts | 308° |
| 2026-04-22 05:52 | 32.84521 | -117.38947 | 7839 ft | 275 kts | 307° |
| 2026-04-22 05:52 | 32.85699 | -117.40756 | 8560 ft | 278 kts | 307° |
| 2026-04-22 05:53 | 32.86886 | -117.42588 | 9300 ft | 281 kts | 307° |
| 2026-04-22 05:53 | 32.88086 | -117.44446 | 10024 ft | 285 kts | 307° |
| 2026-04-22 05:53 | 32.89326 | -117.46371 | 10397 ft | 302 kts | 307° |
| 2026-04-22 05:53 | 32.90641 | -117.48414 | 10694 ft | 319 kts | 307° |
| 2026-04-22 05:54 | 32.92027 | -117.50569 | 10976 ft | 336 kts | 307° |
| 2026-04-22 05:54 | 32.93479 | -117.52832 | 11253 ft | 351 kts | 307° |
| 2026-04-22 05:54 | 32.94985 | -117.55182 | 11617 ft | 362 kts | 307° |
| 2026-04-22 05:54 | 32.96525 | -117.57581 | 12173 ft | 366 kts | 307° |
| 2026-04-22 05:55 | 32.98082 | -117.60006 | 12725 ft | 370 kts | 307° |
| 2026-04-22 05:55 | 32.99632 | -117.62423 | 13278 ft | 373 kts | 307° |
| 2026-04-22 05:55 | 33.01214 | -117.64892 | 13807 ft | 376 kts | 307° |
| 2026-04-22 05:55 | 33.02805 | -117.67378 | 14372 ft | 379 kts | 307° |
| 2026-04-22 05:56 | 33.04411 | -117.69891 | 14900 ft | 382 kts | 307° |
| 2026-04-22 05:56 | 33.06067 | -117.72393 | 15426 ft | 386 kts | 311° |
| 2026-04-22 05:56 | 33.07994 | -117.74626 | 15939 ft | 388 kts | 318° |
| 2026-04-22 05:56 | 33.10054 | -117.76733 | 16441 ft | 392 kts | 319° |
| 2026-04-22 05:57 | 33.12144 | -117.78843 | 16937 ft | 394 kts | 319° |
| 2026-04-22 05:57 | 33.14247 | -117.80970 | 17441 ft | 397 kts | 319° |
| 2026-04-22 05:57 | 33.16358 | -117.83112 | 17906 ft | 400 kts | 319° |
| 2026-04-22 05:57 | 33.18484 | -117.85275 | 18373 ft | 403 kts | 319° |
| 2026-04-22 05:58 | 33.20631 | -117.87452 | 18835 ft | 406 kts | 320° |
| 2026-04-22 05:58 | 33.22829 | -117.89598 | 19273 ft | 408 kts | 321° |
| 2026-04-22 05:58 | 33.25047 | -117.91741 | 19703 ft | 411 kts | 321° |
| 2026-04-22 05:58 | 33.27275 | -117.93900 | 20111 ft | 414 kts | 320° |
| 2026-04-22 05:59 | 33.29519 | -117.96082 | 20532 ft | 416 kts | 320° |
| 2026-04-22 05:59 | 33.31745 | -117.98253 | 20938 ft | 419 kts | 320° |
| 2026-04-22 05:59 | 33.34011 | -118.00467 | 21318 ft | 421 kts | 320° |
| 2026-04-22 05:59 | 33.36289 | -118.02695 | 21694 ft | 424 kts | 320° |
| 2026-04-22 06:00 | 33.38582 | -118.04939 | 22070 ft | 426 kts | 320° |
| 2026-04-22 06:00 | 33.40886 | -118.07196 | 22433 ft | 428 kts | 320° |
| 2026-04-22 06:00 | 33.43197 | -118.09462 | 22788 ft | 431 kts | 320° |
| 2026-04-22 06:00 | 33.45528 | -118.11749 | 23135 ft | 433 kts | 320° |
| 2026-04-22 06:01 | 33.47862 | -118.14041 | 23479 ft | 435 kts | 320° |
| 2026-04-22 06:01 | 33.50181 | -118.16321 | 23816 ft | 438 kts | 320° |
| 2026-04-22 06:01 | 33.52541 | -118.18642 | 24146 ft | 440 kts | 320° |
| 2026-04-22 06:01 | 33.54915 | -118.20977 | 24475 ft | 442 kts | 320° |
| 2026-04-22 06:02 | 33.57383 | -118.23195 | 24792 ft | 444 kts | 327° |
| 2026-04-22 06:02 | 33.60098 | -118.24998 | 25106 ft | 446 kts | 334° |
| 2026-04-22 06:02 | 33.62920 | -118.26581 | 25419 ft | 449 kts | 335° |
| 2026-04-22 06:02 | 33.65765 | -118.28137 | 25734 ft | 451 kts | 335° |
| 2026-04-22 06:03 | 33.68626 | -118.29705 | 26047 ft | 453 kts | 335° |
| 2026-04-22 06:03 | 33.71504 | -118.31287 | 26375 ft | 455 kts | 335° |
| 2026-04-22 06:03 | 33.74390 | -118.32878 | 26681 ft | 458 kts | 335° |
| 2026-04-22 06:03 | 33.77299 | -118.34475 | 26960 ft | 461 kts | 336° |
| 2026-04-22 06:04 | 33.80260 | -118.35980 | 27281 ft | 463 kts | 337° |
| 2026-04-22 06:04 | 33.83206 | -118.37438 | 27624 ft | 465 kts | 337° |
| 2026-04-22 06:04 | 33.86208 | -118.38930 | 27971 ft | 467 kts | 337° |
| 2026-04-22 06:04 | 33.89217 | -118.40437 | 28303 ft | 469 kts | 337° |
| 2026-04-22 06:05 | 33.92241 | -118.41958 | 28634 ft | 471 kts | 337° |
| 2026-04-22 06:05 | 33.95279 | -118.43491 | 28974 ft | 474 kts | 337° |
| 2026-04-22 06:05 | 33.98345 | -118.44989 | 29282 ft | 476 kts | 340° |
| 2026-04-22 06:05 | 34.01536 | -118.46087 | 29603 ft | 479 kts | 348° |
| 2026-04-22 06:06 | 34.04792 | -118.46708 | 29916 ft | 481 kts | 352° |
| 2026-04-22 06:06 | 34.08122 | -118.47221 | 30211 ft | 484 kts | 352° |
| 2026-04-22 06:06 | 34.11470 | -118.47726 | 30489 ft | 486 kts | 352° |
| 2026-04-22 06:06 | 34.14837 | -118.48236 | 30758 ft | 489 kts | 352° |
| 2026-04-22 06:07 | 34.18220 | -118.48752 | 31059 ft | 491 kts | 352° |
| 2026-04-22 06:07 | 34.21620 | -118.49273 | 31358 ft | 493 kts | 352° |
| 2026-04-22 06:07 | 34.25031 | -118.49796 | 31634 ft | 495 kts | 352° |
| 2026-04-22 06:07 | 34.28504 | -118.50331 | 31916 ft | 497 kts | 352° |
| 2026-04-22 06:08 | 34.31889 | -118.50853 | 32284 ft | 496 kts | 352° |
| 2026-04-22 06:08 | 34.35317 | -118.51381 | 32640 ft | 496 kts | 352° |
| 2026-04-22 06:08 | 34.38746 | -118.51911 | 32982 ft | 495 kts | 352° |
| 2026-04-22 06:08 | 34.42177 | -118.52441 | 33361 ft | 494 kts | 352° |
| 2026-04-22 06:09 | 34.45581 | -118.52967 | 33730 ft | 493 kts | 352° |
| 2026-04-22 06:09 | 34.48985 | -118.53495 | 34080 ft | 493 kts | 352° |
| 2026-04-22 06:09 | 34.52387 | -118.54022 | 34427 ft | 492 kts | 352° |
| 2026-04-22 06:09 | 34.55779 | -118.54548 | 34755 ft | 492 kts | 352° |
| 2026-04-22 06:10 | 34.59183 | -118.55076 | 35056 ft | 492 kts | 352° |
| 2026-04-22 06:10 | 34.62538 | -118.55598 | 35346 ft | 492 kts | 352° |
| 2026-04-22 06:10 | 34.65938 | -118.56126 | 35642 ft | 492 kts | 352° |
| 2026-04-22 06:10 | 34.69352 | -118.56657 | 35848 ft | 494 kts | 352° |
| 2026-04-22 06:11 | 34.72774 | -118.57190 | 36074 ft | 495 kts | 352° |
| 2026-04-22 06:11 | 34.76192 | -118.57723 | 36383 ft | 494 kts | 352° |
| 2026-04-22 06:11 | 34.79603 | -118.58255 | 36727 ft | 493 kts | 352° |
| 2026-04-22 06:11 | 34.83002 | -118.58785 | 37042 ft | 492 kts | 352° |
| 2026-04-22 06:12 | 34.86397 | -118.59316 | 37293 ft | 492 kts | 352° |
| 2026-04-22 06:12 | 34.89799 | -118.59848 | 37516 ft | 493 kts | 352° |
| 2026-04-22 06:12 | 34.93161 | -118.60375 | 37698 ft | 494 kts | 352° |
| 2026-04-22 06:12 | 34.96587 | -118.60994 | 37820 ft | 496 kts | 348° |
| 2026-04-22 06:13 | 34.99912 | -118.62126 | 37961 ft | 497 kts | 339° |
| 2026-04-22 06:13 | 35.03035 | -118.63921 | 38191 ft | 496 kts | 329° |
| 2026-04-22 06:13 | 35.05858 | -118.66309 | 38516 ft | 493 kts | 321° |
| 2026-04-22 06:13 | 35.08515 | -118.68953 | 38794 ft | 492 kts | 320° |
| 2026-04-22 06:14 | 35.11142 | -118.71626 | 39001 ft | 491 kts | 320° |
| 2026-04-22 06:14 | 35.13767 | -118.74300 | 39210 ft | 491 kts | 320° |
| 2026-04-22 06:14 | 35.16393 | -118.76973 | 39407 ft | 491 kts | 320° |
| 2026-04-22 06:14 | 35.19012 | -118.79639 | 39672 ft | 489 kts | 320° |
| 2026-04-22 06:15 | 35.21622 | -118.82296 | 39931 ft | 487 kts | 320° |
| 2026-04-22 06:15 | 35.24230 | -118.84952 | 39997 ft | 487 kts | 320° |
| 2026-04-22 06:15 | 35.29409 | -118.90232 | 40002 ft | 487 kts | 320° |
| 2026-04-22 06:16 | 35.34616 | -118.95550 | 40000 ft | 488 kts | 320° |
| 2026-04-22 06:16 | 35.39830 | -119.00883 | 39999 ft | 488 kts | 320° |
| 2026-04-22 06:17 | 35.45049 | -119.06213 | 40000 ft | 488 kts | 321° |
| 2026-04-22 06:17 | 35.50874 | -119.10438 | 39999 ft | 488 kts | 339° |
| 2026-04-22 06:18 | 35.57308 | -119.12964 | 39999 ft | 488 kts | 343° |
| 2026-04-22 06:18 | 35.63864 | -119.15221 | 40000 ft | 489 kts | 344° |
| 2026-04-22 06:19 | 35.70415 | -119.17467 | 40000 ft | 489 kts | 344° |
| 2026-04-22 06:19 | 35.76956 | -119.19752 | 40000 ft | 488 kts | 343° |
| 2026-04-22 06:20 | 35.83493 | -119.22060 | 40000 ft | 488 kts | 343° |
| 2026-04-22 06:20 | 35.89990 | -119.24361 | 40000 ft | 488 kts | 343° |
| 2026-04-22 06:21 | 35.96520 | -119.26676 | 40000 ft | 488 kts | 343° |
| 2026-04-22 06:21 | 36.03044 | -119.28992 | 40000 ft | 488 kts | 343° |
| 2026-04-22 06:22 | 36.09582 | -119.31317 | 40000 ft | 488 kts | 343° |
| 2026-04-22 06:22 | 36.16109 | -119.33643 | 40000 ft | 488 kts | 343° |
| 2026-04-22 06:23 | 36.22636 | -119.35972 | 40000 ft | 488 kts | 343° |
| 2026-04-22 06:23 | 36.29160 | -119.38304 | 40000 ft | 488 kts | 343° |
| 2026-04-22 06:24 | 36.38969 | -119.41819 | 40000 ft | 488 kts | 343° |
| 2026-04-22 06:25 | 36.45455 | -119.44147 | 40000 ft | 488 kts | 343° |
| 2026-04-22 06:25 | 36.51991 | -119.46505 | 40000 ft | 488 kts | 343° |
| 2026-04-22 06:26 | 36.58513 | -119.48861 | 40000 ft | 488 kts | 343° |
| 2026-04-22 06:26 | 36.65041 | -119.51219 | 40000 ft | 488 kts | 343° |
| 2026-04-22 06:27 | 36.71572 | -119.53581 | 40000 ft | 488 kts | 343° |
| 2026-04-22 06:27 | 36.78065 | -119.55932 | 40000 ft | 488 kts | 343° |
| 2026-04-22 06:28 | 36.84597 | -119.58303 | 40000 ft | 488 kts | 343° |
| 2026-04-22 06:28 | 36.91127 | -119.60677 | 40000 ft | 488 kts | 343° |
| 2026-04-22 06:29 | 36.97663 | -119.63057 | 40000 ft | 489 kts | 343° |
| 2026-04-22 06:29 | 37.04165 | -119.65429 | 40000 ft | 489 kts | 343° |
| 2026-04-22 06:30 | 37.10702 | -119.67818 | 40000 ft | 490 kts | 343° |
| 2026-04-22 06:30 | 37.17252 | -119.70216 | 40000 ft | 490 kts | 343° |
| 2026-04-22 06:31 | 37.23821 | -119.72626 | 40000 ft | 491 kts | 343° |
| 2026-04-22 06:31 | 37.29280 | -119.74631 | 40000 ft | 492 kts | 343° |
| 2026-04-22 06:32 | 37.35857 | -119.77051 | 39999 ft | 492 kts | 343° |
| 2026-04-22 06:32 | 37.42443 | -119.79480 | 39998 ft | 492 kts | 343° |
| 2026-04-22 06:33 | 37.49028 | -119.81913 | 40000 ft | 494 kts | 343° |
| 2026-04-22 06:33 | 37.55633 | -119.84357 | 40000 ft | 495 kts | 343° |
| 2026-04-22 06:34 | 37.62247 | -119.86809 | 40000 ft | 496 kts | 343° |
| 2026-04-22 06:34 | 37.68851 | -119.89262 | 39999 ft | 493 kts | 343° |
| 2026-04-22 06:35 | 37.75413 | -119.91704 | 40000 ft | 495 kts | 343° |
| 2026-04-22 06:35 | 37.82047 | -119.94177 | 40001 ft | 497 kts | 343° |
| 2026-04-22 06:36 | 37.88684 | -119.96656 | 40001 ft | 496 kts | 343° |
| 2026-04-22 06:36 | 37.95297 | -119.99131 | 39999 ft | 496 kts | 343° |
| 2026-04-22 06:37 | 38.01936 | -120.01620 | 40001 ft | 498 kts | 343° |
| 2026-04-22 06:37 | 38.08540 | -120.04101 | 40000 ft | 499 kts | 343° |
| 2026-04-22 06:38 | 38.15206 | -120.06610 | 40000 ft | 500 kts | 343° |
| 2026-04-22 06:38 | 38.21882 | -120.09047 | 39999 ft | 498 kts | 347° |
| 2026-04-22 06:39 | 38.28772 | -120.10118 | 40001 ft | 500 kts | 355° |
| 2026-04-22 06:39 | 38.35717 | -120.10777 | 39999 ft | 501 kts | 355° |
| 2026-04-22 06:40 | 38.42699 | -120.11418 | 39999 ft | 502 kts | 355° |
| 2026-04-22 06:40 | 38.49683 | -120.12056 | 40003 ft | 503 kts | 355° |
| 2026-04-22 06:41 | 38.56662 | -120.12694 | 40000 ft | 503 kts | 355° |
| 2026-04-22 06:41 | 38.63610 | -120.13330 | 40000 ft | 505 kts | 355° |
| 2026-04-22 06:42 | 38.70629 | -120.13973 | 40000 ft | 504 kts | 355° |
| 2026-04-22 06:42 | 38.77620 | -120.14615 | 40002 ft | 504 kts | 355° |
| 2026-04-22 06:43 | 38.84624 | -120.15260 | 39998 ft | 503 kts | 355° |
| 2026-04-22 06:43 | 38.91600 | -120.15903 | 40000 ft | 506 kts | 355° |
| 2026-04-22 06:44 | 38.98633 | -120.16553 | 39999 ft | 506 kts | 355° |
| 2026-04-22 06:44 | 39.05654 | -120.17203 | 39999 ft | 504 kts | 355° |
| 2026-04-22 06:45 | 39.12649 | -120.17852 | 39999 ft | 503 kts | 355° |
| 2026-04-22 06:45 | 39.19637 | -120.18501 | 39999 ft | 503 kts | 355° |
| 2026-04-22 06:46 | 39.26622 | -120.19152 | 39999 ft | 503 kts | 355° |
| 2026-04-22 06:46 | 39.33601 | -120.19803 | 40000 ft | 502 kts | 355° |
| 2026-04-22 06:47 | 39.40570 | -120.20455 | 40000 ft | 502 kts | 355° |
| 2026-04-22 06:47 | 39.47486 | -120.21103 | 40002 ft | 502 kts | 355° |
| 2026-04-22 06:48 | 39.54463 | -120.21758 | 40000 ft | 502 kts | 355° |
| 2026-04-22 06:48 | 39.61444 | -120.22414 | 40001 ft | 502 kts | 355° |
| 2026-04-22 06:49 | 39.68409 | -120.23071 | 40000 ft | 500 kts | 355° |
| 2026-04-22 06:49 | 39.75352 | -120.23727 | 40002 ft | 501 kts | 355° |
| 2026-04-22 06:50 | 39.82323 | -120.24386 | 39999 ft | 500 kts | 355° |
| 2026-04-22 06:50 | 39.89212 | -120.25040 | 39999 ft | 500 kts | 355° |
| 2026-04-22 06:51 | 39.96170 | -120.25701 | 40000 ft | 502 kts | 355° |
| 2026-04-22 06:51 | 40.03156 | -120.26366 | 40000 ft | 502 kts | 355° |
| 2026-04-22 06:52 | 40.10125 | -120.27031 | 40000 ft | 502 kts | 355° |
| 2026-04-22 06:52 | 40.17046 | -120.27693 | 39999 ft | 499 kts | 355° |
| 2026-04-22 06:53 | 40.23956 | -120.28355 | 40000 ft | 497 kts | 355° |
| 2026-04-22 06:53 | 40.30865 | -120.29018 | 40000 ft | 497 kts | 355° |
| 2026-04-22 06:54 | 40.37766 | -120.29682 | 40000 ft | 497 kts | 355° |
| 2026-04-22 06:54 | 40.44627 | -120.30343 | 40000 ft | 498 kts | 355° |
| 2026-04-22 06:55 | 40.51540 | -120.31011 | 40000 ft | 498 kts | 355° |
| 2026-04-22 06:55 | 40.58449 | -120.31675 | 40000 ft | 498 kts | 355° |
| 2026-04-22 06:56 | 40.65374 | -120.32346 | 40000 ft | 499 kts | 355° |
| 2026-04-22 06:56 | 40.72313 | -120.33023 | 40000 ft | 500 kts | 355° |
| 2026-04-22 06:57 | 40.79259 | -120.33700 | 40000 ft | 500 kts | 355° |
| 2026-04-22 06:57 | 40.86198 | -120.34379 | 40000 ft | 500 kts | 355° |
| 2026-04-22 06:58 | 40.93100 | -120.35055 | 39999 ft | 500 kts | 355° |
| 2026-04-22 06:58 | 41.00052 | -120.35737 | 39999 ft | 501 kts | 355° |
| 2026-04-22 06:59 | 41.07023 | -120.36421 | 40000 ft | 502 kts | 355° |
| 2026-04-22 06:59 | 41.13977 | -120.37106 | 39999 ft | 500 kts | 355° |
| 2026-04-22 07:00 | 41.20879 | -120.37787 | 40000 ft | 499 kts | 355° |
| 2026-04-22 07:00 | 41.27806 | -120.38471 | 40000 ft | 499 kts | 355° |
| 2026-04-22 07:01 | 41.34743 | -120.39159 | 40000 ft | 500 kts | 355° |
| 2026-04-22 07:01 | 41.41686 | -120.39848 | 40000 ft | 499 kts | 355° |
| 2026-04-22 07:02 | 41.48570 | -120.40533 | 40000 ft | 499 kts | 355° |
| 2026-04-22 07:02 | 41.55489 | -120.41223 | 40000 ft | 498 kts | 355° |
| 2026-04-22 07:03 | 41.62411 | -120.41914 | 40000 ft | 498 kts | 355° |
| 2026-04-22 07:03 | 41.69326 | -120.42607 | 40000 ft | 498 kts | 355° |
| 2026-04-22 07:04 | 41.76248 | -120.43301 | 39411 ft | 498 kts | 355° |
| 2026-04-22 07:04 | 41.79702 | -120.43649 | 38649 ft | 499 kts | 355° |
| 2026-04-22 07:04 | 41.83167 | -120.43998 | 37824 ft | 500 kts | 355° |
| 2026-04-22 07:04 | 41.86643 | -120.44348 | 36970 ft | 502 kts | 355° |
| 2026-04-22 07:05 | 41.90133 | -120.44700 | 36107 ft | 503 kts | 355° |
| 2026-04-22 07:05 | 41.93609 | -120.45052 | 35021 ft | 497 kts | 355° |
| 2026-04-22 07:05 | 41.97056 | -120.45401 | 33490 ft | 496 kts | 355° |
| 2026-04-22 07:05 | 42.00500 | -120.45750 | 31806 ft | 498 kts | 355° |
| 2026-04-22 07:06 | 42.03970 | -120.46101 | 30071 ft | 502 kts | 355° |
| 2026-04-22 07:06 | 42.07471 | -120.46455 | 28465 ft | 502 kts | 355° |
| 2026-04-22 07:06 | 42.10895 | -120.46802 | 26930 ft | 497 kts | 355° |
| 2026-04-22 07:06 | 42.14371 | -120.47153 | 25439 ft | 490 kts | 355° |
| 2026-04-22 07:07 | 42.17701 | -120.47491 | 24198 ft | 479 kts | 355° |
| 2026-04-22 07:07 | 42.20965 | -120.47822 | 23465 ft | 463 kts | 355° |
| 2026-04-22 07:07 | 42.24141 | -120.48146 | 23088 ft | 452 kts | 355° |
| 2026-04-22 07:07 | 42.27229 | -120.48462 | 23001 ft | 440 kts | 355° |
| 2026-04-22 07:08 | 42.30289 | -120.48775 | 22998 ft | 441 kts | 355° |
| 2026-04-22 07:08 | 42.33354 | -120.49089 | 22999 ft | 442 kts | 355° |
| 2026-04-22 07:08 | 42.36427 | -120.49404 | 23000 ft | 443 kts | 355° |
| 2026-04-22 07:08 | 42.39502 | -120.49720 | 23000 ft | 443 kts | 355° |
| 2026-04-22 07:09 | 42.42582 | -120.50036 | 23000 ft | 444 kts | 355° |
| 2026-04-22 07:09 | 42.45621 | -120.50363 | 22998 ft | 443 kts | 354° |
| 2026-04-22 07:09 | 42.48669 | -120.50996 | 22999 ft | 443 kts | 347° |
| 2026-04-22 07:09 | 42.51653 | -120.52216 | 23001 ft | 443 kts | 338° |
| 2026-04-22 07:10 | 42.54495 | -120.53833 | 22999 ft | 443 kts | 336° |
| 2026-04-22 07:10 | 42.57278 | -120.55517 | 23000 ft | 443 kts | 335° |
| 2026-04-22 07:10 | 42.60089 | -120.57228 | 22999 ft | 443 kts | 335° |
| 2026-04-22 07:10 | 42.62899 | -120.58936 | 22998 ft | 442 kts | 335° |
| 2026-04-22 07:11 | 42.65705 | -120.60641 | 22999 ft | 441 kts | 335° |
| 2026-04-22 07:11 | 42.68511 | -120.62345 | 23000 ft | 441 kts | 335° |
| 2026-04-22 07:11 | 42.71313 | -120.64048 | 23000 ft | 441 kts | 335° |
| 2026-04-22 07:11 | 42.74107 | -120.65747 | 23000 ft | 440 kts | 335° |
| 2026-04-22 07:12 | 42.76898 | -120.67446 | 23000 ft | 439 kts | 335° |
| 2026-04-22 07:12 | 42.79691 | -120.69148 | 22999 ft | 439 kts | 335° |
| 2026-04-22 07:12 | 42.82476 | -120.70846 | 23000 ft | 439 kts | 335° |
| 2026-04-22 07:12 | 42.85266 | -120.72548 | 22999 ft | 439 kts | 335° |
| 2026-04-22 07:13 | 42.88055 | -120.74253 | 23000 ft | 439 kts | 335° |
| 2026-04-22 07:13 | 42.90842 | -120.75957 | 23000 ft | 439 kts | 335° |
| 2026-04-22 07:13 | 42.93625 | -120.77660 | 23000 ft | 439 kts | 335° |
| 2026-04-22 07:13 | 42.96417 | -120.79372 | 23000 ft | 439 kts | 335° |
| 2026-04-22 07:14 | 42.99205 | -120.81082 | 23063 ft | 439 kts | 335° |
| 2026-04-22 07:14 | 43.01967 | -120.82777 | 23450 ft | 443 kts | 335° |
| 2026-04-22 07:14 | 43.04803 | -120.84520 | 23864 ft | 450 kts | 335° |
| 2026-04-22 07:14 | 43.07659 | -120.86276 | 23993 ft | 449 kts | 335° |
| 2026-04-22 07:15 | 43.10508 | -120.88031 | 24002 ft | 449 kts | 335° |
| 2026-04-22 07:15 | 43.13363 | -120.89790 | 24000 ft | 449 kts | 335° |
| 2026-04-22 07:15 | 43.16216 | -120.91551 | 24000 ft | 450 kts | 335° |
| 2026-04-22 07:15 | 43.19068 | -120.93313 | 24000 ft | 450 kts | 335° |
| 2026-04-22 07:16 | 43.21928 | -120.95081 | 24000 ft | 450 kts | 335° |
| 2026-04-22 07:16 | 43.23820 | -120.96252 | 24000 ft | 450 kts | 335° |
| 2026-04-22 07:16 | 43.26681 | -120.98025 | 24001 ft | 451 kts | 335° |
| 2026-04-22 07:16 | 43.29538 | -120.99796 | 24000 ft | 450 kts | 335° |
| 2026-04-22 07:17 | 43.32389 | -121.01566 | 24000 ft | 450 kts | 335° |
| 2026-04-22 07:17 | 43.35242 | -121.03339 | 24000 ft | 450 kts | 335° |
| 2026-04-22 07:17 | 43.38090 | -121.05110 | 24000 ft | 450 kts | 335° |
| 2026-04-22 07:17 | 43.40948 | -121.06890 | 24000 ft | 450 kts | 335° |
| 2026-04-22 07:18 | 43.43799 | -121.08667 | 24000 ft | 450 kts | 335° |
| 2026-04-22 07:18 | 43.46654 | -121.10448 | 24000 ft | 450 kts | 335° |
| 2026-04-22 07:18 | 43.49473 | -121.12209 | 24000 ft | 450 kts | 335° |
| 2026-04-22 07:18 | 43.52325 | -121.13992 | 24000 ft | 450 kts | 335° |
| 2026-04-22 07:19 | 43.55187 | -121.15783 | 24000 ft | 451 kts | 335° |
| 2026-04-22 07:19 | 43.58086 | -121.17600 | 24003 ft | 466 kts | 335° |
| 2026-04-22 07:19 | 43.61075 | -121.19474 | 24000 ft | 474 kts | 335° |
| 2026-04-22 07:19 | 43.64093 | -121.21368 | 24000 ft | 479 kts | 335° |
| 2026-04-22 07:20 | 43.67133 | -121.23279 | 24000 ft | 481 kts | 335° |
| 2026-04-22 07:20 | 43.70192 | -121.25204 | 24000 ft | 483 kts | 335° |
| 2026-04-22 07:20 | 43.73219 | -121.27110 | 24000 ft | 483 kts | 335° |
| 2026-04-22 07:20 | 43.76287 | -121.29046 | 24000 ft | 483 kts | 335° |
| 2026-04-22 07:21 | 43.79344 | -121.30977 | 24000 ft | 482 kts | 335° |
| 2026-04-22 07:21 | 43.82396 | -121.32910 | 24000 ft | 481 kts | 335° |
| 2026-04-22 07:21 | 43.85442 | -121.34836 | 24000 ft | 480 kts | 335° |
| 2026-04-22 07:21 | 43.88482 | -121.36761 | 24000 ft | 480 kts | 335° |
| 2026-04-22 07:22 | 43.91518 | -121.38686 | 24000 ft | 479 kts | 335° |
| 2026-04-22 07:22 | 43.94555 | -121.40614 | 24000 ft | 479 kts | 335° |
| 2026-04-22 07:22 | 43.97549 | -121.42517 | 24000 ft | 478 kts | 335° |
| 2026-04-22 07:22 | 44.00584 | -121.44449 | 24000 ft | 478 kts | 335° |
| 2026-04-22 07:23 | 44.03608 | -121.46376 | 24000 ft | 479 kts | 335° |
| 2026-04-22 07:23 | 44.06645 | -121.48313 | 24000 ft | 479 kts | 335° |
| 2026-04-22 07:23 | 44.09673 | -121.50247 | 24000 ft | 479 kts | 335° |
| 2026-04-22 07:23 | 44.12702 | -121.52184 | 24000 ft | 479 kts | 335° |
| 2026-04-22 07:24 | 44.15733 | -121.54124 | 24000 ft | 479 kts | 335° |
| 2026-04-22 07:24 | 44.18761 | -121.56064 | 24000 ft | 478 kts | 335° |
| 2026-04-22 07:24 | 44.21786 | -121.58005 | 24000 ft | 478 kts | 335° |
| 2026-04-22 07:24 | 44.24801 | -121.59942 | 24000 ft | 478 kts | 335° |
| 2026-04-22 07:25 | 44.27820 | -121.61882 | 24000 ft | 478 kts | 335° |
| 2026-04-22 07:25 | 44.30838 | -121.63826 | 24000 ft | 477 kts | 335° |
| 2026-04-22 07:25 | 44.33854 | -121.65770 | 24000 ft | 477 kts | 335° |
| 2026-04-22 07:25 | 44.36825 | -121.67687 | 24000 ft | 477 kts | 335° |
| 2026-04-22 07:26 | 44.39844 | -121.69636 | 24000 ft | 477 kts | 335° |
| 2026-04-22 07:26 | 44.42856 | -121.71585 | 24000 ft | 477 kts | 335° |
| 2026-04-22 07:26 | 44.45870 | -121.73536 | 24000 ft | 477 kts | 335° |
| 2026-04-22 07:26 | 44.48884 | -121.75489 | 24000 ft | 477 kts | 335° |
| 2026-04-22 07:27 | 44.51902 | -121.77448 | 24000 ft | 478 kts | 335° |
| 2026-04-22 07:27 | 44.54921 | -121.79409 | 24000 ft | 479 kts | 335° |
| 2026-04-22 07:27 | 44.57949 | -121.81378 | 24001 ft | 481 kts | 335° |
| 2026-04-22 07:27 | 44.60986 | -121.83356 | 23999 ft | 481 kts | 335° |
| 2026-04-22 07:28 | 44.67056 | -121.87315 | 24000 ft | 480 kts | 335° |
| 2026-04-22 07:28 | 44.70080 | -121.89291 | 24001 ft | 479 kts | 335° |
| 2026-04-22 07:28 | 44.73097 | -121.91264 | 24001 ft | 478 kts | 335° |
| 2026-04-22 07:29 | 44.76118 | -121.93243 | 23999 ft | 478 kts | 335° |
| 2026-04-22 07:29 | 44.79129 | -121.95217 | 23999 ft | 477 kts | 335° |
| 2026-04-22 07:29 | 44.82097 | -121.97166 | 24000 ft | 477 kts | 335° |
| 2026-04-22 07:29 | 44.85111 | -121.99147 | 24000 ft | 477 kts | 334° |
| 2026-04-22 07:30 | 44.88127 | -122.01131 | 24000 ft | 477 kts | 334° |
| 2026-04-22 07:30 | 44.91141 | -122.03117 | 24000 ft | 477 kts | 334° |
| 2026-04-22 07:30 | 44.94146 | -122.05098 | 24000 ft | 477 kts | 334° |
| 2026-04-22 07:30 | 44.97154 | -122.07085 | 24000 ft | 476 kts | 334° |
| 2026-04-22 07:31 | 45.00150 | -122.09065 | 24000 ft | 475 kts | 334° |
| 2026-04-22 07:31 | 45.03147 | -122.11048 | 24000 ft | 476 kts | 334° |
| 2026-04-22 07:31 | 45.06151 | -122.13038 | 24000 ft | 476 kts | 334° |
| 2026-04-22 07:31 | 45.09117 | -122.15006 | 24000 ft | 477 kts | 334° |
| 2026-04-22 07:32 | 45.12116 | -122.16998 | 23999 ft | 475 kts | 334° |
| 2026-04-22 07:32 | 45.15107 | -122.18986 | 24001 ft | 475 kts | 334° |
| 2026-04-22 07:32 | 45.18105 | -122.20982 | 23999 ft | 475 kts | 334° |
| 2026-04-22 07:32 | 45.21090 | -122.22972 | 24001 ft | 473 kts | 334° |
| 2026-04-22 07:33 | 45.24055 | -122.24949 | 23997 ft | 465 kts | 334° |
| 2026-04-22 07:33 | 45.26936 | -122.26874 | 23999 ft | 449 kts | 334° |
| 2026-04-22 07:33 | 45.29747 | -122.28755 | 24000 ft | 445 kts | 334° |
| 2026-04-22 07:33 | 45.32547 | -122.30633 | 24000 ft | 444 kts | 334° |
| 2026-04-22 07:34 | 45.35334 | -122.32500 | 24000 ft | 443 kts | 334° |
| 2026-04-22 07:34 | 45.38130 | -122.34376 | 24000 ft | 443 kts | 334° |
| 2026-04-22 07:34 | 45.40920 | -122.36250 | 24000 ft | 443 kts | 334° |
| 2026-04-22 07:34 | 45.43670 | -122.38099 | 24000 ft | 443 kts | 334° |
| 2026-04-22 07:35 | 45.46456 | -122.39975 | 24000 ft | 443 kts | 334° |
| 2026-04-22 07:35 | 45.49243 | -122.41853 | 24000 ft | 443 kts | 334° |
| 2026-04-22 07:35 | 45.52027 | -122.43731 | 24000 ft | 442 kts | 334° |
| 2026-04-22 07:35 | 45.54813 | -122.45613 | 24000 ft | 442 kts | 334° |
| 2026-04-22 07:36 | 45.57596 | -122.47495 | 24000 ft | 442 kts | 334° |
| 2026-04-22 07:36 | 45.60378 | -122.49378 | 24000 ft | 442 kts | 334° |
| 2026-04-22 07:36 | 45.63158 | -122.51262 | 24000 ft | 442 kts | 334° |
| 2026-04-22 07:36 | 45.65935 | -122.53146 | 24000 ft | 442 kts | 334° |
| 2026-04-22 07:37 | 45.68718 | -122.55036 | 24000 ft | 442 kts | 334° |
| 2026-04-22 07:37 | 45.71501 | -122.56929 | 24000 ft | 442 kts | 334° |
| 2026-04-22 07:37 | 45.74323 | -122.58699 | 23998 ft | 443 kts | 340° |
| 2026-04-22 07:37 | 45.77270 | -122.59805 | 23900 ft | 449 kts | 348° |
| 2026-04-22 07:38 | 45.80364 | -122.60600 | 23653 ft | 453 kts | 350° |
| 2026-04-22 07:38 | 45.83479 | -122.61350 | 23404 ft | 453 kts | 350° |
| 2026-04-22 07:38 | 45.86585 | -122.62101 | 23148 ft | 451 kts | 350° |
| 2026-04-22 07:38 | 45.89674 | -122.62856 | 22893 ft | 450 kts | 350° |
| 2026-04-22 07:39 | 45.92756 | -122.63615 | 22652 ft | 449 kts | 350° |
| 2026-04-22 07:39 | 45.95829 | -122.64374 | 22401 ft | 447 kts | 350° |
| 2026-04-22 07:39 | 45.98888 | -122.65133 | 22154 ft | 446 kts | 350° |
| 2026-04-22 07:39 | 46.01946 | -122.65892 | 22013 ft | 445 kts | 350° |
| 2026-04-22 07:40 | 46.04997 | -122.66652 | 22002 ft | 444 kts | 350° |
| 2026-04-22 07:40 | 46.08045 | -122.67411 | 22004 ft | 444 kts | 350° |
| 2026-04-22 07:40 | 46.11090 | -122.68157 | 21998 ft | 444 kts | 351° |
| 2026-04-22 07:40 | 46.14112 | -122.68762 | 21999 ft | 445 kts | 352° |
| 2026-04-22 07:41 | 46.17179 | -122.69338 | 21998 ft | 444 kts | 352° |
| 2026-04-22 07:41 | 46.20249 | -122.69923 | 21981 ft | 444 kts | 352° |
| 2026-04-22 07:41 | 46.23307 | -122.70516 | 21735 ft | 442 kts | 352° |
| 2026-04-22 07:41 | 46.26355 | -122.71114 | 21481 ft | 441 kts | 352° |
| 2026-04-22 07:42 | 46.29393 | -122.71714 | 21236 ft | 440 kts | 352° |
| 2026-04-22 07:42 | 46.32424 | -122.72204 | 20985 ft | 438 kts | 356° |
| 2026-04-22 07:42 | 46.35470 | -122.72382 | 20735 ft | 436 kts | 358° |
| 2026-04-22 07:42 | 46.38503 | -122.72486 | 20484 ft | 435 kts | 358° |
| 2026-04-22 07:43 | 46.41526 | -122.72587 | 20234 ft | 433 kts | 358° |
| 2026-04-22 07:43 | 46.44495 | -122.72688 | 19987 ft | 431 kts | 358° |
| 2026-04-22 07:43 | 46.47489 | -122.72793 | 19732 ft | 429 kts | 358° |
| 2026-04-22 07:43 | 46.50463 | -122.72898 | 19521 ft | 422 kts | 358° |
| 2026-04-22 07:44 | 46.53355 | -122.73001 | 19270 ft | 407 kts | 358° |
| 2026-04-22 07:44 | 46.56141 | -122.73101 | 19008 ft | 394 kts | 358° |
| 2026-04-22 07:44 | 46.58837 | -122.73199 | 18783 ft | 380 kts | 358° |
| 2026-04-22 07:44 | 46.61406 | -122.73293 | 18596 ft | 367 kts | 358° |
| 2026-04-22 07:45 | 46.63915 | -122.73384 | 18412 ft | 355 kts | 358° |
| 2026-04-22 07:45 | 46.66371 | -122.73473 | 18255 ft | 353 kts | 358° |
| 2026-04-22 07:45 | 46.68835 | -122.73563 | 18100 ft | 353 kts | 358° |
| 2026-04-22 07:45 | 46.71299 | -122.73653 | 17944 ft | 352 kts | 358° |
| 2026-04-22 07:46 | 46.73749 | -122.73742 | 17789 ft | 351 kts | 358° |
| 2026-04-22 07:46 | 46.76190 | -122.73788 | 17554 ft | 351 kts | 1° |
| 2026-04-22 07:46 | 46.78579 | -122.73145 | 17114 ft | 349 kts | 21° |
| 2026-04-22 07:46 | 46.80670 | -122.71386 | 16731 ft | 347 kts | 37° |
| 2026-04-22 07:47 | 46.82545 | -122.69209 | 16339 ft | 342 kts | 39° |
| 2026-04-22 07:47 | 46.84348 | -122.67036 | 15959 ft | 339 kts | 39° |
| 2026-04-22 07:47 | 46.86172 | -122.64885 | 15653 ft | 332 kts | 38° |
| 2026-04-22 07:47 | 46.87957 | -122.62850 | 15510 ft | 319 kts | 37° |
| 2026-04-22 07:48 | 46.89677 | -122.60897 | 15323 ft | 309 kts | 37° |
| 2026-04-22 07:48 | 46.91369 | -122.58973 | 14982 ft | 306 kts | 37° |
| 2026-04-22 07:48 | 46.93068 | -122.57085 | 14650 ft | 303 kts | 34° |
| 2026-04-22 07:48 | 46.94936 | -122.55715 | 14328 ft | 299 kts | 19° |
| 2026-04-22 07:49 | 46.96910 | -122.54800 | 14012 ft | 296 kts | 16° |
| 2026-04-22 07:49 | 46.98881 | -122.53959 | 13697 ft | 293 kts | 15° |
| 2026-04-22 07:49 | 47.00804 | -122.53136 | 13388 ft | 290 kts | 16° |
| 2026-04-22 07:49 | 47.02735 | -122.52303 | 13073 ft | 288 kts | 16° |
| 2026-04-22 07:50 | 47.04646 | -122.51474 | 12754 ft | 285 kts | 16° |
| 2026-04-22 07:50 | 47.06537 | -122.50650 | 12471 ft | 282 kts | 16° |
| 2026-04-22 07:50 | 47.08441 | -122.49981 | 12152 ft | 279 kts | 8° |
| 2026-04-22 07:50 | 47.10391 | -122.49580 | 11925 ft | 290 kts | 6° |
| 2026-04-22 07:51 | 47.12427 | -122.49215 | 11850 ft | 296 kts | 6° |
| 2026-04-22 07:51 | 47.14462 | -122.48850 | 11435 ft | 295 kts | 6° |
| 2026-04-22 07:51 | 47.16502 | -122.48482 | 10924 ft | 295 kts | 6° |
| 2026-04-22 07:51 | 47.18533 | -122.48113 | 10564 ft | 293 kts | 6° |
| 2026-04-22 07:52 | 47.20554 | -122.47766 | 10242 ft | 291 kts | 5° |
| 2026-04-22 07:52 | 47.22565 | -122.47464 | 10087 ft | 290 kts | 5° |
| 2026-04-22 07:52 | 47.24578 | -122.47166 | 10073 ft | 290 kts | 5° |
| 2026-04-22 07:52 | 47.26575 | -122.46866 | 9901 ft | 285 kts | 5° |
| 2026-04-22 07:53 | 47.28497 | -122.46575 | 9497 ft | 272 kts | 5° |
| 2026-04-22 07:53 | 47.30345 | -122.46294 | 8860 ft | 268 kts | 5° |
| 2026-04-22 07:53 | 47.32172 | -122.46015 | 8448 ft | 260 kts | 5° |
| 2026-04-22 07:53 | 47.33983 | -122.45739 | 8308 ft | 261 kts | 5° |
| 2026-04-22 07:54 | 47.35800 | -122.45551 | 8170 ft | 261 kts | 1° |
| 2026-04-22 07:54 | 47.37609 | -122.45525 | 7870 ft | 258 kts | 359° |
| 2026-04-22 07:54 | 47.39408 | -122.45532 | 7590 ft | 257 kts | 359° |
| 2026-04-22 07:54 | 47.41195 | -122.45541 | 7309 ft | 256 kts | 359° |
| 2026-04-22 07:55 | 47.42976 | -122.45549 | 7128 ft | 256 kts | 359° |
| 2026-04-22 07:55 | 47.44758 | -122.45550 | 6998 ft | 256 kts | 359° |
| 2026-04-22 07:55 | 47.46535 | -122.45550 | 6764 ft | 254 kts | 359° |
| 2026-04-22 07:55 | 47.48303 | -122.45551 | 6498 ft | 254 kts | 359° |
| 2026-04-22 07:56 | 47.50044 | -122.45551 | 6308 ft | 245 kts | 359° |
| 2026-04-22 07:56 | 47.51695 | -122.45556 | 6077 ft | 238 kts | 359° |
| 2026-04-22 07:56 | 47.53332 | -122.45608 | 5842 ft | 231 kts | 358° |
| 2026-04-22 07:56 | 47.54929 | -122.45676 | 5618 ft | 228 kts | 358° |
| 2026-04-22 07:57 | 47.56514 | -122.45743 | 5434 ft | 228 kts | 358° |
| 2026-04-22 07:57 | 47.58099 | -122.45805 | 5305 ft | 228 kts | 358° |
| 2026-04-22 07:57 | 47.59685 | -122.45864 | 5187 ft | 227 kts | 358° |
| 2026-04-22 07:57 | 47.61264 | -122.45923 | 5059 ft | 227 kts | 358° |
| 2026-04-22 07:58 | 47.62840 | -122.45982 | 4933 ft | 226 kts | 358° |
| 2026-04-22 07:58 | 47.64405 | -122.46043 | 4861 ft | 224 kts | 358° |
| 2026-04-22 07:58 | 47.65967 | -122.46064 | 4691 ft | 225 kts | 2° |
| 2026-04-22 07:58 | 47.67432 | -122.45303 | 4443 ft | 226 kts | 35° |
| 2026-04-22 07:59 | 47.68403 | -122.43513 | 4193 ft | 225 kts | 67° |
| 2026-04-22 07:59 | 47.68591 | -122.41264 | 3947 ft | 225 kts | 99° |
| 2026-04-22 07:59 | 47.68154 | -122.39045 | 3713 ft | 223 kts | 111° |
| 2026-04-22 07:59 | 47.67586 | -122.36924 | 3459 ft | 216 kts | 112° |
| 2026-04-22 08:00 | 47.67032 | -122.34913 | 3285 ft | 203 kts | 112° |
| 2026-04-22 08:00 | 47.66506 | -122.33042 | 3266 ft | 192 kts | 114° |
| 2026-04-22 08:00 | 47.65643 | -122.31600 | 3272 ft | 192 kts | 149° |
| 2026-04-22 08:00 | 47.64424 | -122.30781 | 3271 ft | 190 kts | 164° |
| 2026-04-22 08:01 | 47.63178 | -122.30589 | 3261 ft | 173 kts | 183° |
| 2026-04-22 08:01 | 47.62052 | -122.30655 | 3255 ft | 151 kts | 181° |
| 2026-04-22 08:01 | 47.61038 | -122.30671 | 3271 ft | 148 kts | 181° |
| 2026-04-22 08:01 | 47.59970 | -122.30671 | 3121 ft | 155 kts | 180° |
| 2026-04-22 08:02 | 47.58922 | -122.30673 | 2893 ft | 147 kts | 181° |
| 2026-04-22 08:02 | 47.57932 | -122.30683 | 2692 ft | 138 kts | 181° |
| 2026-04-22 08:02 | 47.56978 | -122.30692 | 2511 ft | 136 kts | 181° |
| 2026-04-22 08:02 | 47.56027 | -122.30699 | 2341 ft | 136 kts | 181° |
| 2026-04-22 08:03 | 47.55397 | -122.30704 | 2213 ft | 136 kts | 181° |
| 2026-04-22 08:03 | 47.54450 | -122.30712 | 2038 ft | 136 kts | 181° |
| 2026-04-22 08:03 | 47.53505 | -122.30720 | 1852 ft | 135 kts | 181° |
| 2026-04-22 08:03 | 47.52562 | -122.30728 | 1681 ft | 135 kts | 181° |
| 2026-04-22 08:04 | 47.51623 | -122.30736 | 1484 ft | 135 kts | 181° |
| 2026-04-22 08:04 | 47.50686 | -122.30743 | 1309 ft | 135 kts | 181° |
| 2026-04-22 08:04 | 47.49750 | -122.30748 | 1132 ft | 134 kts | 181° |
| 2026-04-22 08:04 | 47.48817 | -122.30750 | 935 ft | 134 kts | 180° |
| 2026-04-22 08:05 | 47.47900 | -122.30756 | 769 ft | 133 kts | 182° |
| 2026-04-22 08:05 | 47.46960 | -122.30768 | 604 ft | 133 kts | 180° |
| 2026-04-22 08:05 | 47.46032 | -122.30773 | 448 ft | 133 kts | 180° |
| 2026-04-22 08:05 | 47.45181 | -122.30787 | 415 ft | 103 kts | 180° |
| 2026-04-22 08:06 | 47.44703 | -122.30791 | 406 ft | 36 kts | 181° |
| 2026-04-22 08:06 | 47.44581 | -122.30675 | 400 ft | 19 kts | 121° |
| 2026-04-22 08:06 | 47.44457 | -122.30632 | 398 ft | 21 kts | 179° |
| 2026-04-22 08:06 | 47.44389 | -122.30632 | 399 ft | 6 kts | 183° |
| 2026-04-22 08:07 | 47.44359 | -122.30616 | 396 ft | 3 kts | 123° |